sensor_id;sensor_type;location;lat;lon;timestamp;pressure;altitude;pressure_sealevel;temperature;humidity
65983;BME280;52740;40.620;-8.640;2022-07-06T00:01:02;101605.13;;;19.21;100.00
65983;BME280;52740;40.620;-8.640;2022-07-06T00:03:03;101608.28;;;19.19;100.00
65983;BME280;52740;40.620;-8.640;2022-07-06T00:05:04;101606.69;;;19.22;100.00
65983;BME280;52740;40.620;-8.640;2022-07-06T00:07:05;101596.38;;;19.19;100.00
65983;BME280;52740;40.620;-8.640;2022-07-06T00:09:06;101590.06;;;19.15;100.00
65983;BME280;52740;40.620;-8.640;2022-07-06T00:11:07;101589.69;;;19.13;100.00
65983;BME280;52740;40.620;-8.640;2022-07-06T00:13:07;101592.09;;;19.07;100.00
65983;BME280;52740;40.620;-8.640;2022-07-06T00:15:08;101600.41;;;19.11;100.00
65983;BME280;52740;40.620;-8.640;2022-07-06T00:17:09;101590.13;;;19.01;100.00
65983;BME280;52740;40.620;-8.640;2022-07-06T00:19:10;101607.63;;;18.90;100.00
65983;BME280;52740;40.620;-8.640;2022-07-06T00:21:11;101616.75;;;18.91;100.00
65983;BME280;52740;40.620;-8.640;2022-07-06T00:23:11;101610.41;;;18.90;100.00
65983;BME280;52740;40.620;-8.640;2022-07-06T00:25:12;101614.78;;;18.84;100.00
65983;BME280;52740;40.620;-8.640;2022-07-06T00:27:13;101621.16;;;18.81;100.00
65983;BME280;52740;40.620;-8.640;2022-07-06T00:29:13;101631.47;;;18.81;100.00
65983;BME280;52740;40.620;-8.640;2022-07-06T00:31:14;101627.88;;;18.80;100.00
65983;BME280;52740;40.620;-8.640;2022-07-06T00:33:15;101623.16;;;18.77;100.00
65983;BME280;52740;40.620;-8.640;2022-07-06T00:35:16;101620.34;;;18.81;100.00
65983;BME280;52740;40.620;-8.640;2022-07-06T00:37:17;101616.34;;;18.89;100.00
65983;BME280;52740;40.620;-8.640;2022-07-06T00:39:18;101625.09;;;18.91;100.00
65983;BME280;52740;40.620;-8.640;2022-07-06T00:41:19;101623.53;;;18.79;100.00
65983;BME280;52740;40.620;-8.640;2022-07-06T00:43:20;101625.09;;;18.84;100.00
65983;BME280;52740;40.620;-8.640;2022-07-06T00:45:21;101620.75;;;18.79;100.00
65983;BME280;52740;40.620;-8.640;2022-07-06T00:47:22;101605.69;;;18.77;100.00
65983;BME280;52740;40.620;-8.640;2022-07-06T00:49:23;101600.94;;;18.77;100.00
65983;BME280;52740;40.620;-8.640;2022-07-06T00:51:42;101595.81;;;18.72;100.00
65983;BME280;52740;40.620;-8.640;2022-07-06T00:53:43;101596.59;;;18.69;100.00
65983;BME280;52740;40.620;-8.640;2022-07-06T00:55:45;101599.78;;;18.64;100.00
65983;BME280;52740;40.620;-8.640;2022-07-06T00:57:46;101610.53;;;18.55;100.00
65983;BME280;52740;40.620;-8.640;2022-07-06T00:59:47;101605.75;;;18.59;100.00
65983;BME280;52740;40.620;-8.640;2022-07-06T01:01:48;101587.91;;;18.60;100.00
65983;BME280;52740;40.620;-8.640;2022-07-06T01:03:50;101611.28;;;18.63;100.00
65983;BME280;52740;40.620;-8.640;2022-07-06T01:05:51;101606.91;;;18.65;100.00
65983;BME280;52740;40.620;-8.640;2022-07-06T01:07:52;101620.78;;;18.69;100.00
65983;BME280;52740;40.620;-8.640;2022-07-06T01:09:54;101629.09;;;18.65;100.00
65983;BME280;52740;40.620;-8.640;2022-07-06T01:11:55;101629.50;;;18.67;100.00
65983;BME280;52740;40.620;-8.640;2022-07-06T01:13:56;101637.44;;;18.51;100.00
65983;BME280;52740;40.620;-8.640;2022-07-06T01:15:57;101640.22;;;18.51;100.00
65983;BME280;52740;40.620;-8.640;2022-07-06T01:17:58;101636.69;;;18.54;100.00
65983;BME280;52740;40.620;-8.640;2022-07-06T01:20:20;101640.22;;;18.62;100.00
65983;BME280;52740;40.620;-8.640;2022-07-06T01:22:21;101638.63;;;18.57;100.00
65983;BME280;52740;40.620;-8.640;2022-07-06T01:24:22;101634.69;;;18.51;100.00
65983;BME280;52740;40.620;-8.640;2022-07-06T01:26:23;101627.53;;;18.43;100.00
65983;BME280;52740;40.620;-8.640;2022-07-06T01:28:24;101631.50;;;18.49;100.00
65983;BME280;52740;40.620;-8.640;2022-07-06T01:30:25;101634.66;;;18.62;100.00
65983;BME280;52740;40.620;-8.640;2022-07-06T01:32:26;101636.28;;;18.59;100.00
65983;BME280;52740;40.620;-8.640;2022-07-06T01:34:28;101640.22;;;18.58;100.00
65983;BME280;52740;40.620;-8.640;2022-07-06T01:36:28;101642.22;;;18.58;100.00
65983;BME280;52740;40.620;-8.640;2022-07-06T01:38:29;101647.38;;;18.59;100.00
65983;BME280;52740;40.620;-8.640;2022-07-06T01:40:30;101644.97;;;18.61;100.00
65983;BME280;52740;40.620;-8.640;2022-07-06T01:42:31;101646.56;;;18.59;100.00
65983;BME280;52740;40.620;-8.640;2022-07-06T01:44:32;101643.41;;;18.60;100.00
65983;BME280;52740;40.620;-8.640;2022-07-06T01:46:34;101640.63;;;18.67;100.00
65983;BME280;52740;40.620;-8.640;2022-07-06T01:48:35;101636.66;;;18.65;100.00
65983;BME280;52740;40.620;-8.640;2022-07-06T01:50:36;101644.97;;;18.61;100.00
65983;BME280;52740;40.620;-8.640;2022-07-06T01:52:37;101646.19;;;18.64;100.00
65983;BME280;52740;40.620;-8.640;2022-07-06T01:54:38;101643.41;;;18.60;100.00
65983;BME280;52740;40.620;-8.640;2022-07-06T01:56:39;101645.38;;;18.49;100.00
65983;BME280;52740;40.620;-8.640;2022-07-06T01:58:41;101645.78;;;18.58;100.00
65983;BME280;52740;40.620;-8.640;2022-07-06T02:00:43;101660.06;;;18.53;100.00
65983;BME280;52740;40.620;-8.640;2022-07-06T02:02:43;101649.72;;;18.50;100.00
65983;BME280;52740;40.620;-8.640;2022-07-06T02:04:46;101656.47;;;18.45;100.00
65983;BME280;52740;40.620;-8.640;2022-07-06T02:06:46;101654.50;;;18.50;100.00
65983;BME280;52740;40.620;-8.640;2022-07-06T02:08:47;101667.16;;;18.43;100.00
65983;BME280;52740;40.620;-8.640;2022-07-06T02:10:48;101669.56;;;18.41;100.00
65983;BME280;52740;40.620;-8.640;2022-07-06T02:12:50;101667.16;;;18.40;100.00
65983;BME280;52740;40.620;-8.640;2022-07-06T02:14:51;101671.16;;;18.46;100.00
65983;BME280;52740;40.620;-8.640;2022-07-06T02:16:52;101676.69;;;18.53;100.00
65983;BME280;52740;40.620;-8.640;2022-07-06T02:18:52;101673.53;;;18.51;100.00
65983;BME280;52740;40.620;-8.640;2022-07-06T02:20:53;101682.25;;;18.53;100.00
65983;BME280;52740;40.620;-8.640;2022-07-06T02:22:54;101682.63;;;18.52;100.00
65983;BME280;52740;40.620;-8.640;2022-07-06T02:24:56;101694.13;;;18.61;100.00
65983;BME280;52740;40.620;-8.640;2022-07-06T02:26:57;101695.72;;;18.65;100.00
65983;BME280;52740;40.620;-8.640;2022-07-06T02:28:58;101692.56;;;18.60;100.00
65983;BME280;52740;40.620;-8.640;2022-07-06T02:30:59;101695.69;;;18.44;100.00
65983;BME280;52740;40.620;-8.640;2022-07-06T02:33:01;101704.81;;;18.30;100.00
65983;BME280;52740;40.620;-8.640;2022-07-06T02:35:02;101702.06;;;18.20;100.00
65983;BME280;52740;40.620;-8.640;2022-07-06T02:37:04;101700.88;;;18.24;100.00
65983;BME280;52740;40.620;-8.640;2022-07-06T02:39:04;101700.44;;;18.26;100.00
65983;BME280;52740;40.620;-8.640;2022-07-06T02:41:05;101700.06;;;18.27;100.00
65983;BME280;52740;40.620;-8.640;2022-07-06T02:43:07;101701.25;;;18.16;100.00
65983;BME280;52740;40.620;-8.640;2022-07-06T02:45:10;101707.19;;;18.11;100.00
65983;BME280;52740;40.620;-8.640;2022-07-06T02:47:10;101704.00;;;17.98;100.00
65983;BME280;52740;40.620;-8.640;2022-07-06T02:49:11;101693.31;;;17.93;100.00
65983;BME280;52740;40.620;-8.640;2022-07-06T02:51:12;101693.69;;;17.95;100.00
65983;BME280;52740;40.620;-8.640;2022-07-06T02:53:13;101684.19;;;17.99;100.00
65983;BME280;52740;40.620;-8.640;2022-07-06T02:55:14;101694.91;;;18.12;100.00
65983;BME280;52740;40.620;-8.640;2022-07-06T02:57:16;101695.72;;;18.16;100.00
65983;BME280;52740;40.620;-8.640;2022-07-06T02:59:18;101684.63;;;18.23;100.00
65983;BME280;52740;40.620;-8.640;2022-07-06T03:01:19;101677.50;;;18.32;100.00
65983;BME280;52740;40.620;-8.640;2022-07-06T03:03:20;101678.66;;;18.35;100.00
65983;BME280;52740;40.620;-8.640;2022-07-06T03:05:21;101675.88;;;18.35;100.00
65983;BME280;52740;40.620;-8.640;2022-07-06T03:07:22;101666.38;;;18.39;100.00
65983;BME280;52740;40.620;-8.640;2022-07-06T03:09:23;101663.22;;;18.44;100.00
65983;BME280;52740;40.620;-8.640;2022-07-06T03:11:24;101666.38;;;18.39;100.00
65983;BME280;52740;40.620;-8.640;2022-07-06T03:13:24;101668.78;;;18.34;100.00
65983;BME280;52740;40.620;-8.640;2022-07-06T03:15:25;101662.03;;;18.35;100.00
65983;BME280;52740;40.620;-8.640;2022-07-06T03:17:26;101664.00;;;18.45;100.00
65983;BME280;52740;40.620;-8.640;2022-07-06T03:19:27;101654.91;;;18.37;100.00
65983;BME280;52740;40.620;-8.640;2022-07-06T03:21:28;101656.06;;;18.40;100.00
65983;BME280;52740;40.620;-8.640;2022-07-06T03:23:30;101656.84;;;18.47;100.00
65983;BME280;52740;40.620;-8.640;2022-07-06T03:25:31;101665.59;;;18.42;100.00
65983;BME280;52740;40.620;-8.640;2022-07-06T03:27:33;101662.03;;;18.42;100.00
65983;BME280;52740;40.620;-8.640;2022-07-06T03:29:36;101661.63;;;18.43;100.00
65983;BME280;52740;40.620;-8.640;2022-07-06T03:31:38;101664.81;;;18.42;100.00
65983;BME280;52740;40.620;-8.640;2022-07-06T03:33:39;101659.25;;;18.35;100.00
65983;BME280;52740;40.620;-8.640;2022-07-06T03:35:40;101646.59;;;18.37;100.00
65983;BME280;52740;40.620;-8.640;2022-07-06T03:37:42;101650.16;;;18.38;100.00
65983;BME280;52740;40.620;-8.640;2022-07-06T03:39:43;101647.38;;;18.38;100.00
65983;BME280;52740;40.620;-8.640;2022-07-06T03:41:45;101644.19;;;18.43;100.00
65983;BME280;52740;40.620;-8.640;2022-07-06T03:43:45;101645.78;;;18.37;100.00
65983;BME280;52740;40.620;-8.640;2022-07-06T03:45:46;101650.53;;;18.33;100.00
65983;BME280;52740;40.620;-8.640;2022-07-06T03:47:47;101658.47;;;18.27;100.00
65983;BME280;52740;40.620;-8.640;2022-07-06T03:49:48;101657.66;;;18.27;100.00
65983;BME280;52740;40.620;-8.640;2022-07-06T03:51:48;101660.84;;;18.39;100.00
65983;BME280;52740;40.620;-8.640;2022-07-06T03:53:49;101667.97;;;18.37;100.00
65983;BME280;52740;40.620;-8.640;2022-07-06T03:55:50;101662.41;;;18.30;100.00
65983;BME280;52740;40.620;-8.640;2022-07-06T03:58:09;101676.69;;;18.32;100.00
65983;BME280;52740;40.620;-8.640;2022-07-06T04:00:14;101654.47;;;18.39;100.00
65983;BME280;52740;40.620;-8.640;2022-07-06T04:02:14;101648.97;;;18.32;100.00
65983;BME280;52740;40.620;-8.640;2022-07-06T04:04:16;101654.50;;;18.28;100.00
65983;BME280;52740;40.620;-8.640;2022-07-06T04:06:19;101645.78;;;18.30;100.00
65983;BME280;52740;40.620;-8.640;2022-07-06T04:08:20;101639.03;;;18.17;100.00
65983;BME280;52740;40.620;-8.640;2022-07-06T04:10:26;101641.84;;;18.20;100.00
65983;BME280;52740;40.620;-8.640;2022-07-06T04:12:29;101647.38;;;18.13;100.00
65983;BME280;52740;40.620;-8.640;2022-07-06T04:14:30;101654.09;;;18.23;100.00
65983;BME280;52740;40.620;-8.640;2022-07-06T04:16:31;101654.91;;;18.20;100.00
65983;BME280;52740;40.620;-8.640;2022-07-06T04:18:32;101652.91;;;18.10;100.00
65983;BME280;52740;40.620;-8.640;2022-07-06T04:20:33;101652.13;;;18.09;100.00
65983;BME280;52740;40.620;-8.640;2022-07-06T04:22:38;101650.94;;;18.14;100.00
65983;BME280;52740;40.620;-8.640;2022-07-06T04:24:40;101661.22;;;18.17;100.00
65983;BME280;52740;40.620;-8.640;2022-07-06T04:26:44;101658.47;;;18.17;100.00
65983;BME280;52740;40.620;-8.640;2022-07-06T04:28:45;101664.00;;;18.10;100.00
65983;BME280;52740;40.620;-8.640;2022-07-06T04:30:45;101669.56;;;18.06;100.00
65983;BME280;52740;40.620;-8.640;2022-07-06T04:32:50;101666.41;;;18.08;100.00
65983;BME280;52740;40.620;-8.640;2022-07-06T04:34:51;101664.41;;;18.05;100.00
65983;BME280;52740;40.620;-8.640;2022-07-06T04:36:52;101652.91;;;18.10;100.00
65983;BME280;52740;40.620;-8.640;2022-07-06T04:38:53;101658.84;;;18.08;100.00
65983;BME280;52740;40.620;-8.640;2022-07-06T04:40:54;101660.06;;;18.11;100.00
65983;BME280;52740;40.620;-8.640;2022-07-06T04:42:55;101656.88;;;18.09;100.00
65983;BME280;52740;40.620;-8.640;2022-07-06T04:44:57;101655.28;;;18.00;100.00
65983;BME280;52740;40.620;-8.640;2022-07-06T04:46:58;101652.91;;;17.99;100.00
65983;BME280;52740;40.620;-8.640;2022-07-06T04:48:58;101664.81;;;18.07;100.00
65983;BME280;52740;40.620;-8.640;2022-07-06T04:51:03;101665.59;;;18.00;100.00
65983;BME280;52740;40.620;-8.640;2022-07-06T04:53:04;101662.41;;;18.05;100.00
65983;BME280;52740;40.620;-8.640;2022-07-06T04:55:07;101666.38;;;18.00;100.00
65983;BME280;52740;40.620;-8.640;2022-07-06T04:57:09;101664.00;;;18.06;100.00
65983;BME280;52740;40.620;-8.640;2022-07-06T04:59:10;101663.22;;;17.98;100.00
65983;BME280;52740;40.620;-8.640;2022-07-06T05:01:11;101661.63;;;17.97;100.00
65983;BME280;52740;40.620;-8.640;2022-07-06T05:03:12;101660.84;;;17.93;100.00
65983;BME280;52740;40.620;-8.640;2022-07-06T05:05:13;101658.06;;;17.90;100.00
65983;BME280;52740;40.620;-8.640;2022-07-06T05:07:14;101664.00;;;17.88;100.00
65983;BME280;52740;40.620;-8.640;2022-07-06T05:09:15;101658.44;;;17.92;100.00
65983;BME280;52740;40.620;-8.640;2022-07-06T05:11:16;101658.03;;;17.86;100.00
65983;BME280;52740;40.620;-8.640;2022-07-06T05:13:18;101661.59;;;17.83;100.00
65983;BME280;52740;40.620;-8.640;2022-07-06T05:15:19;101670.72;;;17.87;100.00
65983;BME280;52740;40.620;-8.640;2022-07-06T05:17:20;101665.97;;;17.84;100.00
65983;BME280;52740;40.620;-8.640;2022-07-06T05:19:20;101673.06;;;17.78;100.00
65983;BME280;52740;40.620;-8.640;2022-07-06T05:21:22;101680.59;;;17.78;100.00
65983;BME280;52740;40.620;-8.640;2022-07-06T05:23:23;101679.00;;;17.73;100.00
65983;BME280;52740;40.620;-8.640;2022-07-06T05:25:24;101671.84;;;17.65;100.00
65983;BME280;52740;40.620;-8.640;2022-07-06T05:27:25;101675.44;;;17.69;100.00
65983;BME280;52740;40.620;-8.640;2022-07-06T05:29:27;101677.44;;;17.72;100.00
65983;BME280;52740;40.620;-8.640;2022-07-06T05:31:28;101672.66;;;17.73;100.00
65983;BME280;52740;40.620;-8.640;2022-07-06T05:33:30;101679.00;;;17.73;100.00
65983;BME280;52740;40.620;-8.640;2022-07-06T05:35:31;101685.75;;;17.72;100.00
65983;BME280;52740;40.620;-8.640;2022-07-06T05:37:33;101690.13;;;17.84;100.00
65983;BME280;52740;40.620;-8.640;2022-07-06T05:39:34;101689.31;;;17.90;100.00
65983;BME280;52740;40.620;-8.640;2022-07-06T05:41:35;101690.16;;;18.01;100.00
65983;BME280;52740;40.620;-8.640;2022-07-06T05:43:36;101690.53;;;18.03;100.00
65983;BME280;52740;40.620;-8.640;2022-07-06T05:45:38;101696.47;;;18.09;100.00
65983;BME280;52740;40.620;-8.640;2022-07-06T05:47:39;101694.50;;;18.17;100.00
65983;BME280;52740;40.620;-8.640;2022-07-06T05:49:58;101683.03;;;18.18;100.00
65983;BME280;52740;40.620;-8.640;2022-07-06T05:52:27;101690.16;;;18.26;100.00
65983;BME280;52740;40.620;-8.640;2022-07-06T05:54:27;101695.31;;;18.35;100.00
65983;BME280;52740;40.620;-8.640;2022-07-06T05:56:29;101685.81;;;18.36;100.00
65983;BME280;52740;40.620;-8.640;2022-07-06T05:58:29;101688.56;;;18.39;100.00
65983;BME280;52740;40.620;-8.640;2022-07-06T06:00:33;101680.66;;;18.45;100.00
65983;BME280;52740;40.620;-8.640;2022-07-06T06:02:40;101684.22;;;18.53;100.00
65983;BME280;52740;40.620;-8.640;2022-07-06T06:04:44;101685.00;;;18.67;100.00
65983;BME280;52740;40.620;-8.640;2022-07-06T06:06:44;101687.78;;;18.74;100.00
65983;BME280;52740;40.620;-8.640;2022-07-06T06:08:45;101676.66;;;18.81;100.00
65983;BME280;52740;40.620;-8.640;2022-07-06T06:10:46;101682.59;;;18.87;100.00
65983;BME280;52740;40.620;-8.640;2022-07-06T06:12:51;101678.22;;;18.93;100.00
65983;BME280;52740;40.620;-8.640;2022-07-06T06:14:52;101676.63;;;18.99;100.00
65983;BME280;52740;40.620;-8.640;2022-07-06T06:16:52;101670.28;;;18.99;100.00
65983;BME280;52740;40.620;-8.640;2022-07-06T06:18:53;101673.44;;;18.97;100.00
65983;BME280;52740;40.620;-8.640;2022-07-06T06:20:54;101667.47;;;19.06;100.00
65983;BME280;52740;40.620;-8.640;2022-07-06T06:22:57;101665.34;;;19.45;100.00
65983;BME280;52740;40.620;-8.640;2022-07-06T06:24:57;101664.25;;;19.94;100.00
65983;BME280;52740;40.620;-8.640;2022-07-06T06:26:58;101662.81;;;20.27;100.00
65983;BME280;52740;40.620;-8.640;2022-07-06T06:29:02;101662.47;;;20.66;100.00
65983;BME280;52740;40.620;-8.640;2022-07-06T06:31:02;101659.66;;;20.69;100.00
65983;BME280;52740;40.620;-8.640;2022-07-06T06:35:12;101647.69;;;21.94;100.00
65983;BME280;52740;40.620;-8.640;2022-07-06T06:37:13;101657.50;;;22.95;100.00
65983;BME280;52740;40.620;-8.640;2022-07-06T06:39:14;101641.34;;;23.78;100.00
65983;BME280;52740;40.620;-8.640;2022-07-06T06:41:15;101641.13;;;24.21;100.00
65983;BME280;52740;40.620;-8.640;2022-07-06T06:43:15;101645.84;;;24.69;100.00
65983;BME280;52740;40.620;-8.640;2022-07-06T06:45:51;101652.56;;;25.42;100.00
65983;BME280;52740;40.620;-8.640;2022-07-06T06:47:52;101656.78;;;25.88;100.00
65983;BME280;52740;40.620;-8.640;2022-07-06T06:49:53;101665.09;;;26.51;100.00
65983;BME280;52740;40.620;-8.640;2022-07-06T06:51:53;101669.63;;;27.05;100.00
65983;BME280;52740;40.620;-8.640;2022-07-06T06:53:54;101662.88;;;26.80;100.00
65983;BME280;52740;40.620;-8.640;2022-07-06T06:55:55;101676.34;;;27.29;100.00
65983;BME280;52740;40.620;-8.640;2022-07-06T06:57:55;101675.88;;;27.52;100.00
65983;BME280;52740;40.620;-8.640;2022-07-06T06:59:56;101681.69;;;27.98;98.27
65983;BME280;52740;40.620;-8.640;2022-07-06T07:01:57;101674.03;;;28.47;94.32
65983;BME280;52740;40.620;-8.640;2022-07-06T07:03:58;101667.91;;;28.49;91.93
65983;BME280;52740;40.620;-8.640;2022-07-06T07:05:59;101665.44;;;28.87;89.90
65983;BME280;52740;40.620;-8.640;2022-07-06T07:08:00;101664.06;;;29.94;81.06
65983;BME280;52740;40.620;-8.640;2022-07-06T07:10:01;101673.88;;;30.79;72.77
65983;BME280;52740;40.620;-8.640;2022-07-06T07:12:04;101670.72;;;30.77;72.34
65983;BME280;52740;40.620;-8.640;2022-07-06T07:14:05;101673.41;;;30.57;71.18
65983;BME280;52740;40.620;-8.640;2022-07-06T07:16:06;101667.69;;;31.19;68.31
65983;BME280;52740;40.620;-8.640;2022-07-06T07:18:06;101671.59;;;31.65;65.83
65983;BME280;52740;40.620;-8.640;2022-07-06T07:20:08;101675.28;;;31.71;63.55
65983;BME280;52740;40.620;-8.640;2022-07-06T07:22:09;101669.81;;;31.53;63.98
65983;BME280;52740;40.620;-8.640;2022-07-06T07:24:10;101668.75;;;32.15;60.09
65983;BME280;52740;40.620;-8.640;2022-07-06T07:26:11;101667.25;;;32.40;58.75
65983;BME280;52740;40.620;-8.640;2022-07-06T07:28:12;101685.00;;;32.55;57.95
65983;BME280;52740;40.620;-8.640;2022-07-06T07:30:12;101682.13;;;32.35;58.27
65983;BME280;52740;40.620;-8.640;2022-07-06T07:32:13;101673.94;;;32.77;57.43
65983;BME280;52740;40.620;-8.640;2022-07-06T07:34:14;101674.00;;;33.34;54.66
65983;BME280;52740;40.620;-8.640;2022-07-06T07:36:15;101685.63;;;33.11;54.24
65983;BME280;52740;40.620;-8.640;2022-07-06T07:38:15;101683.44;;;33.20;53.05
65983;BME280;52740;40.620;-8.640;2022-07-06T07:40:16;101683.91;;;33.19;53.86
65983;BME280;52740;40.620;-8.640;2022-07-06T07:42:17;101686.53;;;33.48;51.87
65983;BME280;52740;40.620;-8.640;2022-07-06T07:44:17;101684.97;;;33.47;51.53
65983;BME280;52740;40.620;-8.640;2022-07-06T07:46:18;101688.81;;;33.75;51.71
65983;BME280;52740;40.620;-8.640;2022-07-06T07:48:19;101693.81;;;33.29;52.63
65983;BME280;52740;40.620;-8.640;2022-07-06T07:50:20;101706.19;;;33.57;51.36
65983;BME280;52740;40.620;-8.640;2022-07-06T07:52:21;101697.75;;;34.42;50.11
65983;BME280;52740;40.620;-8.640;2022-07-06T07:54:22;101698.44;;;34.85;47.38
65983;BME280;52740;40.620;-8.640;2022-07-06T07:56:22;101693.78;;;34.76;46.98
65983;BME280;52740;40.620;-8.640;2022-07-06T07:58:23;101699.53;;;35.04;45.60
65983;BME280;52740;40.620;-8.640;2022-07-06T08:00:24;101702.66;;;35.01;45.65
65983;BME280;52740;40.620;-8.640;2022-07-06T08:02:26;101693.41;;;35.28;44.84
65983;BME280;52740;40.620;-8.640;2022-07-06T08:04:27;101706.09;;;35.66;44.46
65983;BME280;52740;40.620;-8.640;2022-07-06T08:06:28;101705.97;;;34.94;46.07
65983;BME280;52740;40.620;-8.640;2022-07-06T08:08:28;101711.50;;;35.31;45.84
65983;BME280;52740;40.620;-8.640;2022-07-06T08:10:30;101705.34;;;34.62;48.74
65983;BME280;52740;40.620;-8.640;2022-07-06T08:12:31;101710.84;;;34.71;47.00
65983;BME280;52740;40.620;-8.640;2022-07-06T08:14:31;101717.50;;;33.77;49.59
65983;BME280;52740;40.620;-8.640;2022-07-06T08:16:32;101704.25;;;34.06;50.76
65983;BME280;52740;40.620;-8.640;2022-07-06T08:18:33;101710.69;;;34.01;49.99
65983;BME280;52740;40.620;-8.640;2022-07-06T08:20:34;101720.41;;;33.26;51.98
65983;BME280;52740;40.620;-8.640;2022-07-06T08:22:35;101716.75;;;32.59;54.57
65983;BME280;52740;40.620;-8.640;2022-07-06T08:24:37;101722.50;;;32.09;57.81
65983;BME280;52740;40.620;-8.640;2022-07-06T08:26:37;101724.00;;;32.60;55.51
65983;BME280;52740;40.620;-8.640;2022-07-06T08:28:38;101723.13;;;31.69;57.60
65983;BME280;52740;40.620;-8.640;2022-07-06T08:30:39;101722.38;;;32.04;56.22
65983;BME280;52740;40.620;-8.640;2022-07-06T08:32:42;101724.66;;;32.14;56.52
65983;BME280;52740;40.620;-8.640;2022-07-06T08:34:43;101718.19;;;31.99;58.14
65983;BME280;52740;40.620;-8.640;2022-07-06T08:36:45;101717.34;;;30.81;64.51
65983;BME280;52740;40.620;-8.640;2022-07-06T08:38:47;101717.78;;;30.41;70.50
65983;BME280;52740;40.620;-8.640;2022-07-06T08:40:49;101714.56;;;29.50;78.77
65983;BME280;52740;40.620;-8.640;2022-07-06T08:42:53;101717.16;;;29.72;77.65
65983;BME280;52740;40.620;-8.640;2022-07-06T08:44:55;101715.09;;;29.81;76.88
65983;BME280;52740;40.620;-8.640;2022-07-06T08:46:58;101725.41;;;29.15;81.98
65983;BME280;52740;40.620;-8.640;2022-07-06T08:49:03;101722.59;;;28.79;85.27
65983;BME280;52740;40.620;-8.640;2022-07-06T08:51:06;101731.16;;;27.99;91.95
65983;BME280;52740;40.620;-8.640;2022-07-06T08:53:07;101733.41;;;27.82;93.58
65983;BME280;52740;40.620;-8.640;2022-07-06T08:55:08;101729.97;;;27.34;100.00
65983;BME280;52740;40.620;-8.640;2022-07-06T08:57:09;101738.56;;;27.31;98.84
65983;BME280;52740;40.620;-8.640;2022-07-06T08:59:10;101731.31;;;27.73;96.76
65983;BME280;52740;40.620;-8.640;2022-07-06T09:01:12;101742.09;;;27.44;96.90
65983;BME280;52740;40.620;-8.640;2022-07-06T09:03:13;101728.88;;;27.10;100.00
65983;BME280;52740;40.620;-8.640;2022-07-06T09:05:14;101733.13;;;27.37;98.70
65983;BME280;52740;40.620;-8.640;2022-07-06T09:07:17;101736.75;;;27.59;97.89
65983;BME280;52740;40.620;-8.640;2022-07-06T09:09:23;101740.25;;;27.72;99.49
65983;BME280;52740;40.620;-8.640;2022-07-06T09:11:24;101737.69;;;27.65;99.72
65983;BME280;52740;40.620;-8.640;2022-07-06T09:13:28;101741.78;;;28.44;92.31
65983;BME280;52740;40.620;-8.640;2022-07-06T09:15:28;101744.81;;;28.58;90.11
65983;BME280;52740;40.620;-8.640;2022-07-06T09:17:29;101745.84;;;28.34;92.60
65983;BME280;52740;40.620;-8.640;2022-07-06T09:19:31;101754.78;;;27.70;94.78
65983;BME280;52740;40.620;-8.640;2022-07-06T09:21:33;101753.19;;;27.69;96.93
65983;BME280;52740;40.620;-8.640;2022-07-06T09:23:38;101752.09;;;28.96;86.06
65983;BME280;52740;40.620;-8.640;2022-07-06T09:25:38;101757.16;;;28.52;88.34
65983;BME280;52740;40.620;-8.640;2022-07-06T09:27:44;101759.13;;;28.24;88.55
65983;BME280;52740;40.620;-8.640;2022-07-06T09:29:50;101757.03;;;26.63;100.00
65983;BME280;52740;40.620;-8.640;2022-07-06T09:32:01;101767.59;;;25.83;100.00
65983;BME280;52740;40.620;-8.640;2022-07-06T09:34:04;101762.09;;;26.05;100.00
65983;BME280;52740;40.620;-8.640;2022-07-06T09:36:10;101751.66;;;25.51;100.00
65983;BME280;52740;40.620;-8.640;2022-07-06T09:38:13;101755.44;;;25.86;100.00
65983;BME280;52740;40.620;-8.640;2022-07-06T09:40:17;101753.13;;;27.39;100.00
65983;BME280;52740;40.620;-8.640;2022-07-06T09:42:24;101757.84;;;28.92;89.73
65983;BME280;52740;40.620;-8.640;2022-07-06T09:44:33;101755.19;;;29.16;84.42
65983;BME280;52740;40.620;-8.640;2022-07-06T09:46:40;101756.78;;;28.90;84.43
65983;BME280;52740;40.620;-8.640;2022-07-06T09:48:41;101762.84;;;29.70;81.42
65983;BME280;52740;40.620;-8.640;2022-07-06T09:50:46;101759.09;;;29.46;81.24
65983;BME280;52740;40.620;-8.640;2022-07-06T09:52:54;101760.09;;;29.85;78.27
65983;BME280;52740;40.620;-8.640;2022-07-06T09:54:55;101761.72;;;29.68;78.56
65983;BME280;52740;40.620;-8.640;2022-07-06T09:56:57;101763.81;;;29.03;82.86
65983;BME280;52740;40.620;-8.640;2022-07-06T09:58:58;101769.31;;;29.25;82.52
65983;BME280;52740;40.620;-8.640;2022-07-06T10:00:58;101776.53;;;29.08;83.74
65983;BME280;52740;40.620;-8.640;2022-07-06T10:03:00;101768.63;;;29.58;80.12
65983;BME280;52740;40.620;-8.640;2022-07-06T10:05:01;101768.84;;;29.36;81.13
65983;BME280;52740;40.620;-8.640;2022-07-06T10:07:03;101774.63;;;28.78;82.56
65983;BME280;52740;40.620;-8.640;2022-07-06T10:09:08;101773.19;;;30.15;75.90
65983;BME280;52740;40.620;-8.640;2022-07-06T10:11:10;101780.13;;;30.14;74.86
65983;BME280;52740;40.620;-8.640;2022-07-06T10:13:19;101789.56;;;28.47;83.94
65983;BME280;52740;40.620;-8.640;2022-07-06T10:15:22;101786.19;;;27.91;90.48
65983;BME280;52740;40.620;-8.640;2022-07-06T10:17:24;101786.63;;;28.11;88.65
65983;BME280;52740;40.620;-8.640;2022-07-06T10:19:27;101786.50;;;28.23;88.88
65983;BME280;52740;40.620;-8.640;2022-07-06T10:21:28;101784.63;;;29.79;79.76
65983;BME280;52740;40.620;-8.640;2022-07-06T10:23:29;101790.94;;;29.55;79.57
65983;BME280;52740;40.620;-8.640;2022-07-06T10:25:31;101788.16;;;30.39;73.49